sensor_id;sensor_type;location;lat;lon;timestamp;pressure;altitude;pressure_sealevel;temperature;humidity
27864;BME280;15980;51.092;13.916;2023-08-17T00:01:05;98924.84;;;20.75;98.69
27864;BME280;15980;51.092;13.916;2023-08-17T00:11:05;98923.31;;;20.49;100.00
27864;BME280;15980;51.092;13.916;2023-08-17T00:21:06;98916.13;;;20.26;100.00
27864;BME280;15980;51.092;13.916;2023-08-17T00:31:06;98897.06;;;20.03;100.00
27864;BME280;15980;51.092;13.916;2023-08-17T00:41:06;98895.84;;;19.83;100.00
27864;BME280;15980;51.092;13.916;2023-08-17T00:51:07;98893.06;;;19.69;100.00
27864;BME280;15980;51.092;13.916;2023-08-17T01:01:07;98875.50;;;19.47;100.00
27864;BME280;15980;51.092;13.916;2023-08-17T01:21:24;98873.88;;;19.21;100.00
27864;BME280;15980;51.092;13.916;2023-08-17T01:31:31;98877.44;;;19.22;100.00
27864;BME280;15980;51.092;13.916;2023-08-17T01:41:32;98918.38;;;19.21;100.00
27864;BME280;15980;51.092;13.916;2023-08-17T01:51:33;98928.69;;;19.17;100.00
27864;BME280;15980;51.092;13.916;2023-08-17T02:01:33;98924.25;;;19.05;100.00
27864;BME280;15980;51.092;13.916;2023-08-17T02:11:33;98913.53;;;19.04;100.00
27864;BME280;15980;51.092;13.916;2023-08-17T02:21:34;98917.06;;;18.97;100.00
27864;BME280;15980;51.092;13.916;2023-08-17T02:31:34;98921.44;;;18.98;100.00
27864;BME280;15980;51.092;13.916;2023-08-17T02:41:34;98923.13;;;19.21;100.00
27864;BME280;15980;51.092;13.916;2023-08-17T02:51:34;98908.88;;;19.36;100.00
27864;BME280;15980;51.092;13.916;2023-08-17T03:01:36;98905.63;;;19.17;100.00
27864;BME280;15980;51.092;13.916;2023-08-17T03:11:36;98919.88;;;19.04;100.00
27864;BME280;15980;51.092;13.916;2023-08-17T03:21:37;98915.94;;;19.09;100.00
27864;BME280;15980;51.092;13.916;2023-08-17T03:31:38;98917.09;;;19.04;100.00
27864;BME280;15980;51.092;13.916;2023-08-17T03:41:38;98918.25;;;18.96;100.00
27864;BME280;15980;51.092;13.916;2023-08-17T03:51:38;98915.47;;;18.93;100.00
27864;BME280;15980;51.092;13.916;2023-08-17T04:01:38;98911.50;;;18.97;99.92
27864;BME280;15980;51.092;13.916;2023-08-17T04:11:39;98897.22;;;18.99;99.99
27864;BME280;15980;51.092;13.916;2023-08-17T04:21:39;98902.47;;;19.14;100.00
27864;BME280;15980;51.092;13.916;2023-08-17T04:31:39;98905.69;;;19.38;98.64
27864;BME280;15980;51.092;13.916;2023-08-17T04:41:40;98911.34;;;19.56;96.36
27864;BME280;15980;51.092;13.916;2023-08-17T04:51:40;98927.25;;;19.73;96.24
27864;BME280;15980;51.092;13.916;2023-08-17T05:01:40;98945.59;;;20.02;94.96
27864;BME280;15980;51.092;13.916;2023-08-17T05:11:40;98946.75;;;20.83;90.52
27864;BME280;15980;51.092;13.916;2023-08-17T05:21:41;98944.41;;;21.62;85.13
27864;BME280;15980;51.092;13.916;2023-08-17T05:31:41;98958.66;;;21.82;83.48
27864;BME280;15980;51.092;13.916;2023-08-17T05:41:41;98955.78;;;22.44;81.04
27864;BME280;15980;51.092;13.916;2023-08-17T05:51:42;98971.19;;;22.67;79.32
27864;BME280;15980;51.092;13.916;2023-08-17T06:01:42;98977.72;;;22.49;79.32
27864;BME280;15980;51.092;13.916;2023-08-17T06:11:42;98997.69;;;21.96;81.25
27864;BME280;15980;51.092;13.916;2023-08-17T06:21:43;98977.69;;;22.05;81.11
27864;BME280;15980;51.092;13.916;2023-08-17T06:31:43;98981.22;;;22.61;80.52
27864;BME280;15980;51.092;13.916;2023-08-17T06:41:43;99005.38;;;22.85;78.19
27864;BME280;15980;51.092;13.916;2023-08-17T06:51:43;99023.63;;;23.00;76.98
27864;BME280;15980;51.092;13.916;2023-08-17T07:01:44;99009.44;;;22.77;77.38
27864;BME280;15980;51.092;13.916;2023-08-17T07:11:44;99009.78;;;22.38;80.07
27864;BME280;15980;51.092;13.916;2023-08-17T07:21:44;99013.06;;;22.74;80.45
27864;BME280;15980;51.092;13.916;2023-08-17T07:31:45;98998.34;;;23.75;75.15
27864;BME280;15980;51.092;13.916;2023-08-17T07:41:45;98989.56;;;23.73;73.76
27864;BME280;15980;51.092;13.916;2023-08-17T07:51:45;98985.97;;;24.00;72.88
27864;BME280;15980;51.092;13.916;2023-08-17T08:01:45;98975.44;;;24.07;72.30
27864;BME280;15980;51.092;13.916;2023-08-17T08:11:46;98970.09;;;24.17;72.07
27864;BME280;15980;51.092;13.916;2023-08-17T08:21:46;98957.91;;;24.03;73.94
27864;BME280;15980;51.092;13.916;2023-08-17T08:31:46;98951.63;;;24.19;71.74
27864;BME280;15980;51.092;13.916;2023-08-17T08:41:47;98945.91;;;24.26;71.83
27864;BME280;15980;51.092;13.916;2023-08-17T08:51:49;98942.97;;;24.80;70.68
27864;BME280;15980;51.092;13.916;2023-08-17T09:01:50;98944.25;;;24.99;69.84
27864;BME280;15980;51.092;13.916;2023-08-17T09:11:50;98942.88;;;25.27;69.80
27864;BME280;15980;51.092;13.916;2023-08-17T09:21:51;98948.22;;;25.57;67.08
27864;BME280;15980;51.092;13.916;2023-08-17T09:31:51;98937.59;;;25.69;66.04
27864;BME280;15980;51.092;13.916;2023-08-17T09:41:54;98931.81;;;25.92;67.56
27864;BME280;15980;51.092;13.916;2023-08-17T09:51:59;98919.09;;;26.20;67.17
27864;BME280;15980;51.092;13.916;2023-08-17T10:02:00;98920.06;;;26.46;67.68
27864;BME280;15980;51.092;13.916;2023-08-17T10:12:06;98913.31;;;26.72;67.71
27864;BME280;15980;51.092;13.916;2023-08-17T10:22:11;98918.69;;;26.67;66.60
27864;BME280;15980;51.092;13.916;2023-08-17T10:32:12;98916.59;;;27.00;66.76
27864;BME280;15980;51.092;13.916;2023-08-17T10:42:13;98911.50;;;26.95;66.05
27864;BME280;15980;51.092;13.916;2023-08-17T10:52:14;98901.66;;;27.15;66.33
27864;BME280;15980;51.092;13.916;2023-08-17T11:02:14;98897.44;;;27.36;66.36
27864;BME280;15980;51.092;13.916;2023-08-17T11:12:27;98882.56;;;27.74;65.22
27864;BME280;15980;51.092;13.916;2023-08-17T11:22:27;98869.94;;;27.91;65.03
27864;BME280;15980;51.092;13.916;2023-08-17T11:32:28;98856.78;;;28.23;64.57
27864;BME280;15980;51.092;13.916;2023-08-17T11:42:29;98855.22;;;28.56;64.04
27864;BME280;15980;51.092;13.916;2023-08-17T11:52:29;98845.63;;;28.88;61.00
27864;BME280;15980;51.092;13.916;2023-08-17T12:02:29;98839.41;;;29.24;56.55
27864;BME280;15980;51.092;13.916;2023-08-17T12:12:30;98834.53;;;29.56;55.69
27864;BME280;15980;51.092;13.916;2023-08-17T12:22:30;98821.09;;;29.87;53.89
27864;BME280;15980;51.092;13.916;2023-08-17T12:32:30;98815.69;;;30.11;51.87
27864;BME280;15980;51.092;13.916;2023-08-17T12:42:31;98809.19;;;29.92;50.94
27864;BME280;15980;51.092;13.916;2023-08-17T12:52:31;98798.72;;;30.11;50.68
27864;BME280;15980;51.092;13.916;2023-08-17T13:02:31;98788.34;;;30.45;49.79
27864;BME280;15980;51.092;13.916;2023-08-17T13:12:32;98787.69;;;30.86;49.65
27864;BME280;15980;51.092;13.916;2023-08-17T13:22:32;98774.53;;;31.26;47.65
27864;BME280;15980;51.092;13.916;2023-08-17T13:32:32;98764.78;;;31.17;48.46
27864;BME280;15980;51.092;13.916;2023-08-17T13:42:34;98766.34;;;31.18;49.00
27864;BME280;15980;51.092;13.916;2023-08-17T13:52:34;98767.38;;;30.88;48.23
27864;BME280;15980;51.092;13.916;2023-08-17T14:02:35;98772.59;;;30.71;48.96
27864;BME280;15980;51.092;13.916;2023-08-17T14:12:35;98762.59;;;31.03;47.62
27864;BME280;15980;51.092;13.916;2023-08-17T14:22:35;98738.00;;;30.30;48.91
27864;BME280;15980;51.092;13.916;2023-08-17T14:32:35;98730.56;;;29.60;50.18
27864;BME280;15980;51.092;13.916;2023-08-17T14:42:37;98734.38;;;29.26;52.04
27864;BME280;15980;51.092;13.916;2023-08-17T14:52:37;98728.50;;;28.80;54.93
27864;BME280;15980;51.092;13.916;2023-08-17T15:02:38;98746.13;;;28.62;55.86
27864;BME280;15980;51.092;13.916;2023-08-17T15:12:38;98737.97;;;28.64;56.10
27864;BME280;15980;51.092;13.916;2023-08-17T15:22:38;98742.56;;;28.71;56.87
27864;BME280;15980;51.092;13.916;2023-08-17T15:32:39;98733.28;;;29.32;54.86
27864;BME280;15980;51.092;13.916;2023-08-17T15:42:39;98731.38;;;29.88;50.51
27864;BME280;15980;51.092;13.916;2023-08-17T15:52:39;98743.84;;;30.09;48.15
27864;BME280;15980;51.092;13.916;2023-08-17T16:02:39;98740.28;;;29.50;50.47
27864;BME280;15980;51.092;13.916;2023-08-17T16:12:40;98751.19;;;29.29;52.16
27864;BME280;15980;51.092;13.916;2023-08-17T16:22:40;98747.53;;;29.20;52.43
27864;BME280;15980;51.092;13.916;2023-08-17T16:32:40;98744.19;;;28.59;54.75
27864;BME280;15980;51.092;13.916;2023-08-17T16:42:41;98745.59;;;27.98;57.53
27864;BME280;15980;51.092;13.916;2023-08-17T16:52:41;98752.91;;;27.48;59.78
27864;BME280;15980;51.092;13.916;2023-08-17T17:02:41;98758.44;;;27.14;61.17
27864;BME280;15980;51.092;13.916;2023-08-17T17:12:42;98750.97;;;26.82;62.44
27864;BME280;15980;51.092;13.916;2023-08-17T17:22:42;98743.72;;;26.55;64.03
27864;BME280;15980;51.092;13.916;2023-08-17T17:32:42;98767.31;;;26.16;64.53
27864;BME280;15980;51.092;13.916;2023-08-17T17:42:42;98765.03;;;26.11;66.48
27864;BME280;15980;51.092;13.916;2023-08-17T17:52:43;98776.19;;;25.98;69.73
27864;BME280;15980;51.092;13.916;2023-08-17T18:02:43;98771.94;;;25.78;71.88
27864;BME280;15980;51.092;13.916;2023-08-17T18:12:43;98791.41;;;25.52;73.47
27864;BME280;15980;51.092;13.916;2023-08-17T18:22:44;98784.28;;;25.15;74.95
27864;BME280;15980;51.092;13.916;2023-08-17T18:32:44;98781.28;;;24.86;75.91
27864;BME280;15980;51.092;13.916;2023-08-17T18:42:44;98793.97;;;24.55;74.10
27864;BME280;15980;51.092;13.916;2023-08-17T18:52:44;98788.50;;;24.24;73.77
27864;BME280;15980;51.092;13.916;2023-08-17T19:02:45;98807.88;;;23.95;73.56
27864;BME280;15980;51.092;13.916;2023-08-17T19:12:45;98827.47;;;23.72;73.60
27864;BME280;15980;51.092;13.916;2023-08-17T19:22:45;98822.31;;;23.43;73.96
27864;BME280;15980;51.092;13.916;2023-08-17T19:32:45;98830.13;;;23.29;72.98
27864;BME280;15980;51.092;13.916;2023-08-17T19:42:47;98829.28;;;23.32;71.06
27864;BME280;15980;51.092;13.916;2023-08-17T19:52:47;98830.00;;;23.36;70.45
27864;BME280;15980;51.092;13.916;2023-08-17T20:02:48;98817.22;;;23.35;69.70
27864;BME280;15980;51.092;13.916;2023-08-17T20:12:48;98815.88;;;23.19;70.04
27864;BME280;15980;51.092;13.916;2023-08-17T20:22:48;98814.88;;;23.06;70.68
27864;BME280;15980;51.092;13.916;2023-08-17T20:32:49;98825.13;;;22.86;71.96
27864;BME280;15980;51.092;13.916;2023-08-17T20:42:49;98825.22;;;22.75;72.64
27864;BME280;15980;51.092;13.916;2023-08-17T20:52:49;98831.00;;;22.61;73.33
27864;BME280;15980;51.092;13.916;2023-08-17T21:02:49;98845.63;;;22.38;74.94
27864;BME280;15980;51.092;13.916;2023-08-17T21:12:50;98844.13;;;22.30;74.94
27864;BME280;15980;51.092;13.916;2023-08-17T21:22:50;98849.44;;;22.17;76.02
27864;BME280;15980;51.092;13.916;2023-08-17T21:32:51;98850.72;;;22.02;77.00
27864;BME280;15980;51.092;13.916;2023-08-17T21:42:53;98866.06;;;21.83;77.77
27864;BME280;15980;51.092;13.916;2023-08-17T21:52:53;98857.81;;;21.69;78.66
27864;BME280;15980;51.092;13.916;2023-08-17T22:02:53;98859.97;;;21.44;79.75
27864;BME280;15980;51.092;13.916;2023-08-17T22:12:53;98865.28;;;21.24;81.69
27864;BME280;15980;51.092;13.916;2023-08-17T22:22:54;98871.31;;;21.08;82.75
27864;BME280;15980;51.092;13.916;2023-08-17T22:32:54;98862.22;;;20.93;83.38
27864;BME280;15980;51.092;13.916;2023-08-17T22:42:54;98861.91;;;20.74;84.30
27864;BME280;15980;51.092;13.916;2023-08-17T22:52:55;98866.38;;;20.50;84.93
27864;BME280;15980;51.092;13.916;2023-08-17T23:02:55;98862.41;;;20.40;85.59
27864;BME280;15980;51.092;13.916;2023-08-17T23:12:55;98867.97;;;20.26;87.28
27864;BME280;15980;51.092;13.916;2023-08-17T23:22:56;98856.03;;;20.22;87.13
27864;BME280;15980;51.092;13.916;2023-08-17T23:32:56;98863.22;;;20.12;88.13
27864;BME280;15980;51.092;13.916;2023-08-17T23:42:57;98872.78;;;20.04;88.11
27864;BME280;15980;51.092;13.916;2023-08-17T23:52:57;98867.22;;;20.00;88.06
